createdAt,value
2022-09-10T00:01:25.032Z,17.63
2022-09-10T00:03:53.494Z,17.61
2022-09-10T00:06:21.327Z,17.62
2022-09-10T00:08:49.128Z,17.61
2022-09-10T00:11:15.909Z,17.58
2022-09-10T00:13:45.569Z,17.56
2022-09-10T00:16:14.606Z,17.57
2022-09-10T00:18:41.833Z,17.57
2022-09-10T00:21:11.829Z,17.55
2022-09-10T00:23:38.534Z,17.53
2022-09-10T00:26:19.160Z,17.53
2022-09-10T00:28:49.027Z,17.53
2022-09-10T00:31:15.910Z,17.51
2022-09-10T00:33:42.686Z,17.53
2022-09-10T00:36:21.663Z,17.51
2022-09-10T00:38:52.260Z,17.48
2022-09-10T00:41:21.788Z,17.42
2022-09-10T00:43:50.904Z,17.41
2022-09-10T00:46:33.439Z,17.43
2022-09-10T00:49:03.596Z,17.42
2022-09-10T00:51:35.002Z,17.44
2022-09-10T00:54:03.014Z,17.46
2022-09-10T00:56:29.978Z,17.44
2022-09-10T00:58:56.787Z,17.45
2022-09-10T01:01:23.352Z,17.45
2022-09-10T01:03:53.671Z,17.48
2022-09-10T01:06:20.416Z,17.53
2022-09-10T01:08:46.893Z,17.53
2022-09-10T01:11:23.140Z,17.58
2022-09-10T01:13:52.344Z,17.55
2022-09-10T01:16:27.902Z,17.49
2022-09-10T01:19:07.417Z,17.45
2022-09-10T01:22:02.719Z,17.42
2022-09-10T01:24:43.927Z,17.42
2022-09-10T01:27:41.466Z,17.41
2022-09-10T01:30:24.402Z,17.35
2022-09-10T01:33:00.784Z,17.29
2022-09-10T01:35:40.145Z,17.24
2022-09-10T01:38:14.025Z,17.23
2022-09-10T01:40:43.810Z,17.22
2022-09-10T01:43:11.713Z,17.22
2022-09-10T01:45:59.363Z,17.24
2022-09-10T01:48:44.233Z,17.24
2022-09-10T01:51:34.498Z,17.18
2022-09-10T01:54:26.265Z,17.14
2022-09-10T01:57:06.137Z,17.07
2022-09-10T01:59:42.278Z,17.04
2022-09-10T02:02:53.700Z,17.05
2022-09-10T02:05:23.645Z,17.02
2022-09-10T02:07:56.962Z,17.01
2022-09-10T02:10:23.893Z,17.01
2022-09-10T02:12:50.380Z,17.00
2022-09-10T02:15:18.827Z,17.00
2022-09-10T02:17:46.579Z,16.98
2022-09-10T02:20:14.808Z,16.94
2022-09-10T02:22:58.619Z,16.88
2022-09-10T02:25:31.651Z,16.91
2022-09-10T02:27:58.581Z,16.90
2022-09-10T02:30:25.019Z,16.94
2022-09-10T02:32:51.345Z,16.95
2022-09-10T02:35:18.102Z,16.92
2022-09-10T02:37:45.127Z,16.89
2022-09-10T02:40:12.001Z,16.88
2022-09-10T02:42:38.403Z,16.93
2022-09-10T02:45:05.430Z,16.97
2022-09-10T02:47:34.923Z,16.99
2022-09-10T02:50:03.706Z,17.00
2022-09-10T02:52:30.135Z,16.97
2022-09-10T02:55:00.019Z,16.94
2022-09-10T02:57:27.185Z,16.97
2022-09-10T02:59:56.816Z,16.90
2022-09-10T03:02:23.662Z,16.88
2022-09-10T03:04:50.022Z,16.85
2022-09-10T03:07:20.156Z,16.86
2022-09-10T03:09:47.145Z,16.86
2022-09-10T03:12:15.773Z,16.89
2022-09-10T03:14:43.274Z,16.89
2022-09-10T03:17:09.860Z,16.91
2022-09-10T03:19:36.595Z,16.91
2022-09-10T03:22:03.490Z,16.94
2022-09-10T03:24:29.877Z,16.96
2022-09-10T03:26:59.309Z,16.92
2022-09-10T03:29:26.285Z,16.92
2022-09-10T03:31:52.702Z,16.91
2022-09-10T03:34:19.054Z,16.87
2022-09-10T03:36:47.224Z,16.84
2022-09-10T03:39:15.285Z,16.83
2022-09-10T03:41:42.062Z,16.88
2022-09-10T03:44:08.667Z,16.92
2022-09-10T03:46:35.086Z,16.95
2022-09-10T03:49:02.330Z,16.99
2022-09-10T03:51:29.495Z,17.02
2022-09-10T03:53:55.855Z,17.01
2022-09-10T03:56:22.395Z,17.02
2022-09-10T03:58:51.961Z,16.98
2022-09-10T04:01:19.741Z,16.97
2022-09-10T04:03:49.999Z,16.98
2022-09-10T04:06:17.824Z,16.95
2022-09-10T04:08:46.724Z,16.93
2022-09-10T04:11:14.044Z,16.95
2022-09-10T04:13:40.501Z,16.98
2022-09-10T04:16:07.155Z,16.98
2022-09-10T04:18:34.193Z,16.94
2022-09-10T04:21:00.850Z,16.92
2022-09-10T04:23:27.183Z,16.91
2022-09-10T04:25:53.561Z,16.93
2022-09-10T04:28:20.088Z,16.98
2022-09-10T04:30:48.030Z,17.02
2022-09-10T04:33:14.360Z,17.01
2022-09-10T04:35:40.801Z,17.01
2022-09-10T04:38:08.008Z,17.04
2022-09-10T04:40:34.683Z,17.08
2022-09-10T04:43:01.766Z,17.10
2022-09-10T04:45:28.830Z,17.13
2022-09-10T04:47:55.933Z,17.12
2022-09-10T04:50:22.799Z,17.16
2022-09-10T04:52:49.174Z,17.19
2022-09-10T04:55:15.635Z,17.16
2022-09-10T04:57:42.196Z,17.18
2022-09-10T05:00:10.886Z,17.18
2022-09-10T05:02:37.561Z,17.19
2022-09-10T05:05:04.421Z,17.20
2022-09-10T05:07:30.883Z,17.19
2022-09-10T05:09:57.538Z,17.23
2022-09-10T05:12:24.147Z,17.24
2022-09-10T05:14:50.508Z,17.23
2022-09-10T05:17:17.036Z,17.23
2022-09-10T05:19:43.518Z,17.20
2022-09-10T05:22:10.104Z,17.16
2022-09-10T05:24:36.645Z,17.20
2022-09-10T05:27:03.401Z,17.24
2022-09-10T05:29:30.777Z,17.24
2022-09-10T05:31:57.143Z,17.25
2022-09-10T05:34:24.575Z,17.26
2022-09-10T05:36:50.892Z,17.26
2022-09-10T05:39:26.490Z,17.28
2022-09-10T05:41:55.419Z,17.29
2022-09-10T05:44:21.829Z,17.32
2022-09-10T05:46:48.489Z,17.34
2022-09-10T05:49:15.196Z,17.38
2022-09-10T05:51:41.593Z,17.42
2022-09-10T05:54:08.109Z,17.48
2022-09-10T05:56:34.744Z,17.50
2022-09-10T05:59:01.366Z,17.51
2022-09-10T06:01:29.119Z,17.53
2022-09-10T06:03:56.128Z,17.54
2022-09-10T06:06:22.476Z,17.57
2022-09-10T06:08:51.916Z,17.62
2022-09-10T06:11:18.271Z,17.66
2022-09-10T06:13:44.642Z,17.70
2022-09-10T06:16:14.356Z,17.71
2022-09-10T06:18:44.232Z,17.69
2022-09-10T06:21:16.514Z,17.71
2022-09-10T06:23:44.641Z,17.71
2022-09-10T06:26:17.015Z,17.72
2022-09-10T06:28:47.992Z,17.73
2022-09-10T06:31:17.165Z,17.74
2022-09-10T06:33:44.466Z,17.74
2022-09-10T06:36:11.301Z,17.75
2022-09-10T06:38:37.823Z,17.79
2022-09-10T06:41:07.059Z,17.84
2022-09-10T06:43:36.772Z,17.82
2022-09-10T06:46:34.741Z,17.85
2022-09-10T06:49:04.222Z,17.82
2022-09-10T06:51:31.221Z,17.83
2022-09-10T06:53:57.785Z,17.86
2022-09-10T06:56:24.583Z,17.89
2022-09-10T06:58:51.639Z,17.91
2022-09-10T07:01:20.580Z,17.91
2022-09-10T07:03:47.421Z,17.92
2022-09-10T07:06:17.975Z,17.96
2022-09-10T07:08:44.744Z,17.97
2022-09-10T07:11:13.490Z,17.99
2022-09-10T07:13:40.611Z,18.00
2022-09-10T07:16:07.623Z,18.00
2022-09-10T07:18:34.498Z,18.06
2022-09-10T07:21:13.021Z,18.11
2022-09-10T07:23:40.402Z,18.10
2022-09-10T07:26:10.046Z,18.11
2022-09-10T07:28:37.818Z,18.12
2022-09-10T07:31:18.329Z,18.14
2022-09-10T07:33:45.570Z,18.13
2022-09-10T07:36:14.486Z,18.12
2022-09-10T07:38:44.758Z,18.14
2022-09-10T07:41:13.264Z,18.14
2022-09-10T07:43:43.867Z,18.17
2022-09-10T07:46:13.841Z,18.19
2022-09-10T07:48:41.486Z,18.21
2022-09-10T07:51:09.028Z,18.24
2022-09-10T07:53:35.850Z,18.28
2022-09-10T07:56:04.674Z,18.30
2022-09-10T07:58:32.446Z,18.31
2022-09-10T08:00:59.860Z,18.34
2022-09-10T08:03:27.449Z,18.34
2022-09-10T08:05:54.086Z,18.39
2022-09-10T08:08:31.615Z,18.42
2022-09-10T08:11:11.921Z,18.46
2022-09-10T08:13:42.462Z,18.56
2022-09-10T08:16:10.684Z,18.65
2022-09-10T08:18:37.391Z,18.76
2022-09-10T08:21:05.000Z,18.80
2022-09-10T08:23:31.781Z,18.85
2022-09-10T08:25:58.226Z,18.87
2022-09-10T08:28:27.166Z,18.93
2022-09-10T08:30:56.959Z,18.99
2022-09-10T08:33:24.437Z,19.02
2022-09-10T08:35:58.793Z,19.04
2022-09-10T08:38:29.528Z,19.09
2022-09-10T08:40:57.254Z,19.11
2022-09-10T08:43:42.490Z,19.20
2022-09-10T08:46:20.424Z,19.23
2022-09-10T08:48:55.073Z,19.27
2022-09-10T08:51:34.852Z,19.30
2022-09-10T08:54:08.467Z,19.30
2022-09-10T08:56:34.900Z,19.34
2022-09-10T08:59:09.115Z,19.40
2022-09-10T09:01:42.438Z,19.41
2022-09-10T09:04:37.017Z,19.46
2022-09-10T09:07:12.618Z,19.52
2022-09-10T09:09:39.027Z,19.60
2022-09-10T09:12:15.605Z,19.70
2022-09-10T09:15:00.272Z,19.84
2022-09-10T09:17:41.193Z,20.21
2022-09-10T09:20:15.429Z,20.42
2022-09-10T09:22:51.870Z,20.60
2022-09-10T09:25:24.412Z,20.66
2022-09-10T09:27:58.094Z,20.73
2022-09-10T09:30:31.931Z,20.67
2022-09-10T09:33:04.744Z,20.57
2022-09-10T09:35:36.476Z,20.49
2022-09-10T09:38:20.777Z,20.39
2022-09-10T09:40:56.544Z,20.31
2022-09-10T09:43:35.065Z,20.24
2022-09-10T09:46:02.655Z,20.19
2022-09-10T09:48:37.797Z,20.15
2022-09-10T09:51:04.961Z,20.10
2022-09-10T09:53:31.643Z,20.10
2022-09-10T09:56:01.262Z,20.10
2022-09-10T09:58:30.761Z,20.13
2022-09-10T10:01:03.507Z,20.16
2022-09-10T10:03:48.317Z,20.18
2022-09-10T10:06:15.992Z,20.22
2022-09-10T10:08:51.961Z,20.31
2022-09-10T10:11:21.185Z,20.61
2022-09-10T10:13:50.443Z,20.80
2022-09-10T10:16:35.532Z,21.01
2022-09-10T10:19:02.207Z,21.20
2022-09-10T10:21:31.409Z,21.27
2022-09-10T10:24:00.918Z,21.33
2022-09-10T10:26:30.555Z,21.29
2022-09-10T10:29:06.462Z,21.18
2022-09-10T10:31:44.988Z,21.22
2022-09-10T10:34:40.059Z,21.30
2022-09-10T10:37:30.812Z,21.40
2022-09-10T10:40:26.484Z,21.76
2022-09-10T10:43:24.567Z,21.93
2022-09-10T10:45:59.670Z,21.91
2022-09-10T10:48:47.213Z,22.06
2022-09-10T10:51:39.792Z,22.35
2022-09-10T10:54:31.202Z,22.82
2022-09-10T10:57:17.844Z,23.27
2022-09-10T11:00:10.304Z,23.63
2022-09-10T11:02:50.443Z,23.86
2022-09-10T11:05:23.995Z,23.78
2022-09-10T11:07:50.434Z,23.52
2022-09-10T11:10:31.553Z,23.35
2022-09-10T11:13:16.387Z,23.09
2022-09-10T11:15:53.333Z,22.82
2022-09-10T11:18:35.664Z,22.59
2022-09-10T11:21:12.250Z,22.43
2022-09-10T11:23:38.498Z,22.29
2022-09-10T11:26:12.564Z,22.16
2022-09-10T11:29:04.309Z,22.10
2022-09-10T11:31:34.320Z,22.03
2022-09-10T11:34:10.264Z,22.00
2022-09-10T11:36:47.090Z,22.06
2022-09-10T11:39:24.010Z,22.15
2022-09-10T11:41:52.545Z,22.12
2022-09-10T11:44:25.011Z,22.08
2022-09-10T11:47:06.939Z,22.02
2022-09-10T11:50:00.660Z,21.99
2022-09-10T11:52:31.264Z,21.97
2022-09-10T11:54:58.551Z,21.98
2022-09-10T11:57:40.221Z,21.96
2022-09-10T12:00:12.104Z,21.91
2022-09-10T12:03:20.437Z,21.79
2022-09-10T12:06:09.257Z,21.65
2022-09-10T12:09:01.413Z,21.63
2022-09-10T12:12:06.816Z,21.61
2022-09-10T12:14:33.293Z,21.62
2022-09-10T12:17:08.636Z,21.72
2022-09-10T12:19:39.995Z,22.07
2022-09-10T12:22:17.207Z,22.39
2022-09-10T12:24:52.534Z,22.76
2022-09-10T12:27:20.147Z,23.06
2022-09-10T12:29:47.182Z,23.34
2022-09-10T12:32:15.227Z,23.48
2022-09-10T12:34:41.941Z,23.64
2022-09-10T12:37:11.059Z,23.84
2022-09-10T12:39:37.902Z,24.06
2022-09-10T12:42:34.259Z,24.16
2022-09-10T12:45:00.973Z,24.29
2022-09-10T12:47:42.030Z,24.31
2022-09-10T12:50:25.176Z,24.20
2022-09-10T12:52:51.494Z,24.20
2022-09-10T12:55:53.637Z,24.27
2022-09-10T12:58:26.827Z,24.33
2022-09-10T13:00:55.947Z,24.50
2022-09-10T13:03:25.032Z,24.66
2022-09-10T13:05:54.626Z,24.71
2022-09-10T13:08:28.905Z,24.88
2022-09-10T13:10:56.321Z,24.97
2022-09-10T13:13:40.098Z,25.06
2022-09-10T13:16:14.560Z,25.15
2022-09-10T13:18:42.049Z,25.17
2022-09-10T13:21:23.625Z,25.13
2022-09-10T13:23:50.983Z,25.19
2022-09-10T13:26:37.356Z,25.28
2022-09-10T13:29:11.281Z,25.39
2022-09-10T13:31:46.865Z,25.48
2022-09-10T13:34:14.227Z,25.37
2022-09-10T13:37:22.990Z,25.23
2022-09-10T13:40:26.813Z,25.10
2022-09-10T13:43:11.865Z,24.90
2022-09-10T13:46:00.703Z,24.82
2022-09-10T13:48:30.761Z,24.79
2022-09-10T13:51:40.182Z,24.81
2022-09-10T13:54:16.731Z,24.86
2022-09-10T13:56:46.414Z,24.69
2022-09-10T13:59:24.150Z,24.62
2022-09-10T14:01:54.334Z,24.71
2022-09-10T14:04:27.590Z,24.68
2022-09-10T14:07:13.082Z,24.59
2022-09-10T14:09:53.506Z,24.48
2022-09-10T14:12:26.046Z,24.43
2022-09-10T14:14:56.843Z,24.44
2022-09-10T14:17:28.754Z,24.32
2022-09-10T14:20:05.200Z,24.26
2022-09-10T14:22:31.999Z,24.18
2022-09-10T14:25:01.592Z,24.17
2022-09-10T14:27:36.385Z,24.11
2022-09-10T14:30:18.287Z,24.04
2022-09-10T14:32:46.257Z,24.01
2022-09-10T14:35:51.679Z,23.97
2022-09-10T14:38:38.940Z,23.98
2022-09-10T14:41:17.603Z,24.02
2022-09-10T14:43:45.576Z,23.97
2022-09-10T14:46:32.901Z,23.92
2022-09-10T14:49:01.248Z,23.89
2022-09-10T14:51:28.407Z,23.83
2022-09-10T14:53:57.277Z,23.75
2022-09-10T14:56:38.644Z,23.76
2022-09-10T14:59:22.883Z,23.76
2022-09-10T15:01:49.513Z,23.73
2022-09-10T15:04:18.825Z,23.69
2022-09-10T15:06:45.359Z,23.64
2022-09-10T15:09:14.969Z,23.65
2022-09-10T15:11:58.932Z,23.61
2022-09-10T15:14:25.926Z,23.61
2022-09-10T15:16:52.611Z,23.58
2022-09-10T15:19:19.824Z,23.57
2022-09-10T15:21:46.909Z,23.53
2022-09-10T15:24:15.653Z,23.43
2022-09-10T15:26:44.391Z,23.39
2022-09-10T15:29:11.208Z,23.34
2022-09-10T15:31:38.442Z,23.32
2022-09-10T15:34:15.118Z,23.28
2022-09-10T15:36:41.530Z,23.31
2022-09-10T15:39:11.930Z,23.37
2022-09-10T15:41:44.038Z,23.42
2022-09-10T15:44:15.869Z,23.42
2022-09-10T15:46:45.056Z,23.42
2022-09-10T15:49:14.347Z,23.36
2022-09-10T15:51:41.274Z,23.31
2022-09-10T15:54:09.899Z,23.32
2022-09-10T15:56:36.601Z,23.33
2022-09-10T15:59:05.701Z,23.33
2022-09-10T16:01:33.982Z,23.34
2022-09-10T16:04:04.485Z,23.30
2022-09-10T16:06:39.149Z,23.30
2022-09-10T16:09:11.745Z,23.24
2022-09-10T16:11:46.013Z,23.23
2022-09-10T16:14:14.563Z,23.24
2022-09-10T16:16:41.852Z,23.17
2022-09-10T16:19:09.093Z,23.08
2022-09-10T16:21:37.054Z,22.99
2022-09-10T16:24:05.035Z,22.97
2022-09-10T16:26:35.250Z,22.92
2022-09-10T16:29:06.425Z,22.83
2022-09-10T16:31:35.336Z,22.81
2022-09-10T16:34:04.656Z,22.80
2022-09-10T16:36:37.026Z,22.81
2022-09-10T16:39:07.159Z,22.81
2022-09-10T16:41:33.499Z,22.80
2022-09-10T16:44:00.663Z,22.72
2022-09-10T16:46:28.185Z,22.69
2022-09-10T16:48:56.090Z,22.65
2022-09-10T16:51:24.262Z,22.64
2022-09-10T16:54:02.255Z,22.64
2022-09-10T16:56:46.047Z,22.54
2022-09-10T16:59:23.436Z,22.53
2022-09-10T17:01:52.091Z,22.52
2022-09-10T17:04:28.806Z,22.47
2022-09-10T17:06:59.063Z,22.43
2022-09-10T17:09:26.002Z,22.41
2022-09-10T17:11:53.244Z,22.32
2022-09-10T17:14:22.921Z,22.31
2022-09-10T17:16:49.836Z,22.27
2022-09-10T17:19:19.899Z,22.24
2022-09-10T17:21:51.286Z,22.14
2022-09-10T17:24:18.628Z,22.08
2022-09-10T17:26:45.998Z,21.97
2022-09-10T17:29:15.528Z,21.87
2022-09-10T17:31:43.192Z,21.81
2022-09-10T17:34:13.688Z,21.74
2022-09-10T17:36:42.258Z,21.72
2022-09-10T17:39:08.723Z,21.66
2022-09-10T17:41:35.111Z,21.65
2022-09-10T17:44:02.472Z,21.64
2022-09-10T17:46:31.022Z,21.55
2022-09-10T17:49:00.835Z,21.50
2022-09-10T17:51:32.133Z,21.49
2022-09-10T17:53:59.008Z,21.48
2022-09-10T17:56:26.548Z,21.45
2022-09-10T17:59:01.728Z,21.43
2022-09-10T18:01:34.367Z,21.40
2022-09-10T18:04:01.011Z,21.34
2022-09-10T18:06:29.092Z,21.29
2022-09-10T18:09:00.778Z,21.25
2022-09-10T18:11:30.086Z,21.22
2022-09-10T18:13:59.283Z,21.19
2022-09-10T18:16:27.936Z,21.15
2022-09-10T18:19:13.873Z,21.11
2022-09-10T18:21:42.019Z,21.04
2022-09-10T18:24:17.391Z,21.00
2022-09-10T18:26:46.421Z,20.96
2022-09-10T18:29:13.937Z,20.93
2022-09-10T18:31:43.094Z,20.87
2022-09-10T18:34:12.899Z,20.80
2022-09-10T18:36:39.745Z,20.75
2022-09-10T18:39:10.538Z,20.73
2022-09-10T18:41:38.587Z,20.69
2022-09-10T18:44:07.973Z,20.69
2022-09-10T18:46:35.644Z,20.66
2022-09-10T18:49:02.774Z,20.65
2022-09-10T18:51:30.144Z,20.66
2022-09-10T18:54:01.005Z,20.60
2022-09-10T18:56:29.848Z,20.58
2022-09-10T18:59:02.946Z,20.51
2022-09-10T19:01:30.965Z,20.50
2022-09-10T19:03:57.983Z,20.43
2022-09-10T19:06:27.492Z,20.43
2022-09-10T19:08:59.230Z,20.39
2022-09-10T19:11:30.249Z,20.34
2022-09-10T19:13:57.190Z,20.32
2022-09-10T19:16:27.107Z,20.30
2022-09-10T19:18:58.936Z,20.27
2022-09-10T19:21:26.951Z,20.27
2022-09-10T19:23:59.366Z,20.25
2022-09-10T19:26:28.097Z,20.25
2022-09-10T19:28:57.425Z,20.26
2022-09-10T19:31:25.789Z,20.25
2022-09-10T19:33:57.142Z,20.23
2022-09-10T19:36:25.237Z,20.23
2022-09-10T19:38:51.831Z,20.20
2022-09-10T19:41:18.723Z,20.17
2022-09-10T19:43:49.009Z,20.17
2022-09-10T19:46:17.067Z,20.15
2022-09-10T19:48:43.994Z,20.10
2022-09-10T19:51:13.413Z,20.08
2022-09-10T19:53:44.019Z,20.03
2022-09-10T19:56:20.761Z,20.00
2022-09-10T19:58:50.522Z,20.01
2022-09-10T20:01:22.424Z,19.97
2022-09-10T20:03:50.593Z,19.95
2022-09-10T20:06:19.450Z,19.95
2022-09-10T20:08:48.009Z,19.90
2022-09-10T20:11:17.571Z,19.83
2022-09-10T20:13:45.111Z,19.79
2022-09-10T20:16:12.503Z,19.80
2022-09-10T20:18:39.074Z,19.81
2022-09-10T20:21:27.270Z,19.85
2022-09-10T20:23:57.967Z,19.87
2022-09-10T20:26:29.743Z,19.88
2022-09-10T20:29:00.738Z,19.90
2022-09-10T20:31:29.108Z,19.86
2022-09-10T20:33:57.129Z,19.85
2022-09-10T20:36:26.607Z,19.86
2022-09-10T20:38:54.160Z,19.82
2022-09-10T20:41:20.814Z,19.77
2022-09-10T20:43:51.668Z,19.76
2022-09-10T20:46:22.590Z,19.71
2022-09-10T20:48:51.898Z,19.68
2022-09-10T20:51:20.087Z,19.63
2022-09-10T20:53:47.103Z,19.61
2022-09-10T20:56:17.720Z,19.58
2022-09-10T20:58:45.706Z,19.57
2022-09-10T21:01:13.342Z,19.53
2022-09-10T21:03:41.223Z,19.45
2022-09-10T21:06:12.517Z,19.42
2022-09-10T21:08:40.807Z,19.38
2022-09-10T21:11:09.982Z,19.34
2022-09-10T21:13:37.827Z,19.31
2022-09-10T21:16:19.208Z,19.27
2022-09-10T21:18:54.341Z,19.26
2022-09-10T21:21:25.159Z,19.23
2022-09-10T21:23:53.664Z,19.26
2022-09-10T21:26:23.819Z,19.24
2022-09-10T21:28:53.498Z,19.21
2022-09-10T21:31:22.463Z,19.18
2022-09-10T21:33:48.884Z,19.17
2022-09-10T21:36:17.989Z,19.12
2022-09-10T21:38:53.271Z,19.04
2022-09-10T21:41:33.468Z,19.01
2022-09-10T21:44:02.907Z,18.97
2022-09-10T21:46:29.657Z,18.92
2022-09-10T21:48:56.338Z,18.92
2022-09-10T21:51:23.040Z,18.91
2022-09-10T21:53:56.299Z,18.91
2022-09-10T21:56:25.936Z,18.92
2022-09-10T21:58:53.577Z,18.87
2022-09-10T22:01:24.162Z,18.86
2022-09-10T22:03:54.942Z,18.85
2022-09-10T22:06:24.407Z,18.82
2022-09-10T22:08:53.189Z,18.78
2022-09-10T22:11:24.298Z,18.77
2022-09-10T22:13:53.212Z,18.76
2022-09-10T22:16:20.761Z,18.75
2022-09-10T22:18:47.194Z,18.70
2022-09-10T22:21:13.585Z,18.65
2022-09-10T22:23:40.110Z,18.60
2022-09-10T22:26:18.254Z,18.61
2022-09-10T22:28:45.139Z,18.60
2022-09-10T22:31:14.326Z,18.55
2022-09-10T22:33:42.848Z,18.49
2022-09-10T22:36:10.223Z,18.43
2022-09-10T22:38:36.724Z,18.39
2022-09-10T22:41:07.127Z,18.37
2022-09-10T22:43:35.323Z,18.35
2022-09-10T22:46:01.821Z,18.33
2022-09-10T22:48:28.204Z,18.32
2022-09-10T22:50:55.262Z,18.30
2022-09-10T22:53:21.739Z,18.27
2022-09-10T22:55:48.123Z,18.21
2022-09-10T22:58:14.789Z,18.20
2022-09-10T23:00:41.100Z,18.16
2022-09-10T23:03:07.541Z,18.14
2022-09-10T23:05:35.210Z,18.15
2022-09-10T23:08:01.752Z,18.16
2022-09-10T23:10:28.097Z,18.15
2022-09-10T23:12:57.250Z,18.11
2022-09-10T23:15:23.632Z,18.09
2022-09-10T23:17:50.006Z,18.07
2022-09-10T23:20:16.493Z,18.03
2022-09-10T23:22:42.801Z,17.99
2022-09-10T23:25:09.580Z,17.96
2022-09-10T23:27:38.658Z,17.94
2022-09-10T23:30:05.903Z,17.93
2022-09-10T23:32:32.230Z,17.93
2022-09-10T23:35:00.291Z,17.94
2022-09-10T23:37:26.671Z,17.93
2022-09-10T23:39:53.068Z,17.89
2022-09-10T23:42:22.569Z,17.87
2022-09-10T23:44:48.891Z,17.84
2022-09-10T23:47:15.211Z,17.79
2022-09-10T23:49:41.550Z,17.78
2022-09-10T23:52:08.143Z,17.79
2022-09-10T23:54:35.121Z,17.79
2022-09-10T23:57:02.719Z,17.81
2022-09-10T23:59:29.163Z,17.81
